CYCQ

Chetwynd Airport

Chetwynd, British Columbia, Canada
METAR CYCQ 231400Z 22004KT 35SM SCT100 BKN160 12/07 A2985 RMK AC4CI1 FU SLP113 DENSITY ALT 2200FT
Observed Flight Rules
May-23 @ 14:00 UTC (an hour ago) Visual Flight Rules
Wind Visibility Clouds
220° at 4 knots 35 miles
  • Scattered at 10,000' AGL
  • Broken at 16,000' AGL
Temperatures Readings
Current 12°C / 54°F
Dewpoint 7°C / 45°F
Humidity 72%
Altimeter 29.85" Hg
Pressure 1011.3 hPa
Elevation 609
METAR CYCQ 231400Z 22004KT 35SM SCT100 BKN160 12/07 A2985 RMK AC4CI1 FU SLP113 DENSITY ALT 2200FT
Observed Flight Rules
May-23 @ 14:00 UTC
(an hour ago)
VFR
Wind Visibility
220° at 4 knots 35 miles
Clouds
  • Scattered at 10,000' AGL
  • Broken at 16,000' AGL
Temperature Dewpoint
12°C / 54°F 7°C / 45°F
Humidity Altimeter Pressure
72% 29.85" Hg 1011.3 hPa